createdAt,value
2022-12-24T00:00:27.262Z,997.01
2022-12-24T00:01:27.149Z,996.90
2022-12-24T00:02:27.242Z,996.91
2022-12-24T00:03:27.276Z,996.97
2022-12-24T00:04:27.098Z,996.89
2022-12-24T00:05:27.088Z,996.89
2022-12-24T00:06:27.055Z,996.92
2022-12-24T00:07:27.025Z,996.93
2022-12-24T00:08:27.007Z,997.00
2022-12-24T00:09:26.984Z,997.02
2022-12-24T00:10:26.958Z,997.04
2022-12-24T00:11:26.939Z,997.02
2022-12-24T00:12:26.914Z,997.05
2022-12-24T00:13:26.902Z,997.03
2022-12-24T00:14:26.876Z,997.05
2022-12-24T00:15:26.862Z,997.10
2022-12-24T00:16:26.909Z,997.12
2022-12-24T00:17:26.814Z,997.10
2022-12-24T00:18:26.800Z,997.21
2022-12-24T00:19:26.772Z,997.21
2022-12-24T00:20:26.755Z,997.22
2022-12-24T00:21:26.770Z,997.25
2022-12-24T00:22:26.705Z,997.26
2022-12-24T00:23:26.687Z,997.20
2022-12-24T00:24:26.659Z,997.22
2022-12-24T00:25:26.677Z,997.28
2022-12-24T00:26:26.629Z,997.17
2022-12-24T00:27:26.606Z,997.28
2022-12-24T00:28:26.595Z,997.27
2022-12-24T00:29:26.565Z,997.25
2022-12-24T00:30:26.541Z,997.36
2022-12-24T00:31:26.648Z,997.30
2022-12-24T00:32:26.508Z,997.31
2022-12-24T00:33:26.471Z,997.34
2022-12-24T00:34:26.459Z,997.44
2022-12-24T00:35:26.435Z,997.37
2022-12-24T00:36:26.413Z,997.39
2022-12-24T00:37:26.423Z,997.45
2022-12-24T00:38:26.370Z,997.43
2022-12-24T00:39:26.354Z,997.44
2022-12-24T00:40:26.336Z,997.49
2022-12-24T00:41:26.625Z,997.52
2022-12-24T00:42:26.291Z,997.51
2022-12-24T00:43:26.268Z,997.46
2022-12-24T00:44:26.249Z,997.51
2022-12-24T00:45:26.225Z,997.63
2022-12-24T00:46:26.352Z,997.59
2022-12-24T00:47:26.186Z,997.69
2022-12-24T00:48:26.163Z,997.61
2022-12-24T00:49:26.145Z,997.55
2022-12-24T00:50:26.120Z,997.70
2022-12-24T00:51:26.200Z,997.59
2022-12-24T00:52:26.087Z,997.67
2022-12-24T00:53:26.090Z,997.79
2022-12-24T00:54:26.033Z,997.69
2022-12-24T00:55:26.015Z,997.74
2022-12-24T00:56:25.995Z,997.71
2022-12-24T00:57:25.974Z,997.68
2022-12-24T00:58:25.951Z,997.73
2022-12-24T00:59:25.935Z,997.86
2022-12-24T01:00:25.908Z,997.64
2022-12-24T01:01:26.024Z,997.74
2022-12-24T01:02:26.113Z,997.78
2022-12-24T01:03:25.875Z,997.68
2022-12-24T01:04:25.818Z,997.84
2022-12-24T01:05:25.806Z,997.89
2022-12-24T01:06:25.782Z,997.72
2022-12-24T01:07:25.758Z,997.78
2022-12-24T01:08:25.755Z,997.79
2022-12-24T01:09:25.741Z,997.74
2022-12-24T01:10:25.699Z,997.87
2022-12-24T01:11:25.684Z,997.93
2022-12-24T01:12:25.657Z,997.88
2022-12-24T01:13:25.636Z,997.88
2022-12-24T01:14:25.613Z,997.93
2022-12-24T01:15:25.591Z,997.93
2022-12-24T01:16:25.652Z,997.98
2022-12-24T01:17:25.552Z,998.00
2022-12-24T01:18:25.527Z,998.01
2022-12-24T01:19:25.508Z,998.04
2022-12-24T01:20:25.485Z,997.98
2022-12-24T01:21:25.472Z,998.04
2022-12-24T01:22:25.444Z,998.07
2022-12-24T01:23:25.427Z,998.07
2022-12-24T01:24:25.399Z,998.05
2022-12-24T01:25:25.409Z,998.09
2022-12-24T01:26:25.365Z,998.16
2022-12-24T01:27:25.336Z,998.20
2022-12-24T01:28:25.321Z,998.17
2022-12-24T01:29:25.295Z,998.26
2022-12-24T01:30:25.279Z,998.24
2022-12-24T01:31:25.314Z,998.21
2022-12-24T01:32:25.249Z,998.24
2022-12-24T01:33:25.209Z,998.32
2022-12-24T01:34:25.194Z,998.30
2022-12-24T01:35:25.173Z,998.28
2022-12-24T01:36:25.155Z,998.29
2022-12-24T01:37:25.128Z,998.35
2022-12-24T01:38:25.107Z,998.36
2022-12-24T01:39:25.092Z,998.38
2022-12-24T01:40:25.064Z,998.40
2022-12-24T01:41:25.067Z,998.31
2022-12-24T01:42:25.031Z,998.37
2022-12-24T01:43:25.017Z,998.40
2022-12-24T01:44:28.431Z,998.41
2022-12-24T01:45:24.956Z,998.48
2022-12-24T01:46:25.043Z,998.43
2022-12-24T01:47:24.919Z,998.39
2022-12-24T01:48:24.898Z,998.45
2022-12-24T01:49:24.875Z,998.47
2022-12-24T01:50:24.859Z,998.50
2022-12-24T01:51:24.837Z,998.51
2022-12-24T01:52:24.814Z,998.54
2022-12-24T01:53:24.809Z,998.54
2022-12-24T01:54:24.780Z,998.52
2022-12-24T01:55:24.752Z,998.55
2022-12-24T01:56:24.761Z,998.60
2022-12-24T01:57:24.725Z,998.63
2022-12-24T01:58:24.687Z,998.63
2022-12-24T01:59:24.722Z,998.64
2022-12-24T02:00:24.656Z,998.66
2022-12-24T02:01:24.741Z,998.73
2022-12-24T02:02:24.804Z,998.66
2022-12-24T02:03:24.626Z,998.77
2022-12-24T02:04:24.566Z,998.76
2022-12-24T02:05:24.536Z,998.69
2022-12-24T02:06:24.516Z,998.65
2022-12-24T02:07:24.512Z,998.80
2022-12-24T02:08:24.478Z,998.77
2022-12-24T02:09:24.456Z,998.77
2022-12-24T02:10:24.441Z,998.79
2022-12-24T02:11:24.422Z,998.80
2022-12-24T02:12:24.393Z,998.81
2022-12-24T02:13:24.395Z,998.85
2022-12-24T02:14:24.347Z,998.91
2022-12-24T02:15:24.327Z,998.89
2022-12-24T02:16:24.418Z,998.89
2022-12-24T02:17:24.288Z,998.86
2022-12-24T02:18:24.267Z,998.86
2022-12-24T02:19:24.243Z,998.83
2022-12-24T02:20:24.230Z,998.89
2022-12-24T02:21:24.204Z,998.86
2022-12-24T02:22:24.189Z,998.92
2022-12-24T02:23:24.160Z,998.91
2022-12-24T02:24:24.141Z,998.92
2022-12-24T02:25:24.121Z,998.92
2022-12-24T02:26:24.101Z,998.93
2022-12-24T02:27:24.109Z,999.02
2022-12-24T02:28:24.058Z,999.00
2022-12-24T02:29:24.055Z,999.00
2022-12-24T02:30:24.016Z,999.04
2022-12-24T02:31:24.023Z,998.98
2022-12-24T02:32:23.984Z,999.03
2022-12-24T02:33:23.950Z,999.06
2022-12-24T02:34:23.935Z,999.03
2022-12-24T02:35:23.913Z,999.12
2022-12-24T02:36:23.893Z,999.14
2022-12-24T02:37:23.868Z,999.07
2022-12-24T02:38:23.848Z,999.13
2022-12-24T02:39:23.828Z,999.11
2022-12-24T02:40:23.815Z,999.06
2022-12-24T02:41:23.787Z,999.18
2022-12-24T02:42:23.768Z,999.21
2022-12-24T02:43:23.737Z,999.23
2022-12-24T02:44:23.726Z,999.31
2022-12-24T02:45:23.728Z,999.25
2022-12-24T02:46:23.713Z,999.24
2022-12-24T02:47:23.667Z,999.33
2022-12-24T02:48:23.646Z,999.33
2022-12-24T02:49:23.617Z,999.37
2022-12-24T02:50:23.597Z,999.34
2022-12-24T02:51:23.567Z,999.42
2022-12-24T02:52:23.553Z,999.38
2022-12-24T02:53:23.527Z,999.37
2022-12-24T02:54:23.514Z,999.31
2022-12-24T02:55:23.494Z,999.42
2022-12-24T02:56:23.477Z,999.51
2022-12-24T02:57:23.448Z,999.36
2022-12-24T02:58:23.427Z,999.40
2022-12-24T02:59:23.405Z,999.39
2022-12-24T03:00:23.469Z,999.45
2022-12-24T03:01:23.540Z,999.39
2022-12-24T03:02:23.498Z,999.46
2022-12-24T03:03:23.321Z,999.42
2022-12-24T03:04:23.297Z,999.40
2022-12-24T03:05:23.283Z,999.42
2022-12-24T03:06:23.265Z,999.46
2022-12-24T03:07:23.237Z,999.47
2022-12-24T03:08:23.219Z,999.40
2022-12-24T03:09:23.196Z,999.51
2022-12-24T03:10:23.179Z,999.46
2022-12-24T03:11:23.147Z,999.49
2022-12-24T03:12:23.155Z,999.44
2022-12-24T03:13:23.111Z,999.57
2022-12-24T03:14:23.096Z,999.60
2022-12-24T03:15:23.063Z,999.52
2022-12-24T03:16:23.093Z,999.58
2022-12-24T03:17:23.041Z,999.58
2022-12-24T03:18:23.000Z,999.58
2022-12-24T03:19:22.990Z,999.64
2022-12-24T03:20:22.965Z,999.56
2022-12-24T03:21:22.944Z,999.57
2022-12-24T03:22:22.932Z,999.58
2022-12-24T03:23:22.897Z,999.62
2022-12-24T03:24:22.892Z,999.64
2022-12-24T03:25:22.857Z,999.65
2022-12-24T03:26:22.840Z,999.64
2022-12-24T03:27:22.813Z,999.66
2022-12-24T03:28:22.790Z,999.67
2022-12-24T03:29:22.775Z,999.70
2022-12-24T03:30:22.755Z,999.73
2022-12-24T03:31:22.795Z,999.84
2022-12-24T03:32:22.712Z,999.72
2022-12-24T03:33:22.705Z,999.79
2022-12-24T03:34:22.666Z,999.81
2022-12-24T03:35:22.640Z,999.88
2022-12-24T03:36:22.625Z,999.78
2022-12-24T03:37:22.613Z,999.75
2022-12-24T03:38:22.590Z,999.79
2022-12-24T03:39:22.587Z,999.77
2022-12-24T03:40:22.541Z,999.80
2022-12-24T03:41:22.515Z,999.86
2022-12-24T03:42:22.498Z,999.90
2022-12-24T03:43:22.473Z,999.92
2022-12-24T03:44:22.461Z,999.91
2022-12-24T03:45:22.438Z,999.93
2022-12-24T03:46:22.475Z,999.92
2022-12-24T03:47:22.407Z,999.91
2022-12-24T03:48:26.041Z,999.93
2022-12-24T03:49:22.367Z,999.94
2022-12-24T03:50:22.370Z,999.93
2022-12-24T03:51:22.315Z,1000.01
2022-12-24T03:52:22.287Z,999.97
2022-12-24T03:53:22.269Z,999.91
2022-12-24T03:54:22.246Z,999.95
2022-12-24T03:55:22.233Z,999.94
2022-12-24T03:56:22.198Z,1000.03
2022-12-24T03:57:22.189Z,1000.07
2022-12-24T03:58:22.172Z,999.97
2022-12-24T03:59:22.141Z,1000.03
2022-12-24T04:00:22.142Z,1000.07
2022-12-24T04:01:22.364Z,1000.02
2022-12-24T04:02:22.225Z,1000.04
2022-12-24T04:03:22.180Z,999.96
2022-12-24T04:04:22.043Z,1000.09
2022-12-24T04:05:22.034Z,1000.13
2022-12-24T04:06:21.997Z,1000.12
2022-12-24T04:07:21.974Z,1000.13
2022-12-24T04:08:21.951Z,1000.14
2022-12-24T04:09:21.927Z,1000.16
2022-12-24T04:10:21.958Z,1000.06
2022-12-24T04:11:21.925Z,1000.05
2022-12-24T04:12:21.868Z,1000.05
2022-12-24T04:13:21.846Z,1000.09
2022-12-24T04:14:21.826Z,1000.02
2022-12-24T04:15:21.797Z,1000.12
2022-12-24T04:16:21.841Z,1000.12
2022-12-24T04:17:21.771Z,1000.12
2022-12-24T04:18:21.745Z,1000.14
2022-12-24T04:19:21.728Z,1000.18
2022-12-24T04:20:21.711Z,1000.19
2022-12-24T04:21:21.705Z,1000.21
2022-12-24T04:22:21.673Z,1000.19
2022-12-24T04:23:21.659Z,1000.26
2022-12-24T04:24:21.610Z,1000.25
2022-12-24T04:25:21.907Z,1000.28
2022-12-24T04:26:21.576Z,1000.25
2022-12-24T04:27:25.335Z,1000.29
2022-12-24T04:28:21.526Z,1000.34
2022-12-24T04:29:21.510Z,1000.33
2022-12-24T04:30:21.486Z,1000.28
2022-12-24T04:31:21.553Z,1000.33
2022-12-24T04:32:21.482Z,1000.32
2022-12-24T04:33:21.425Z,1000.32
2022-12-24T04:34:21.406Z,1000.32
2022-12-24T04:35:21.383Z,1000.46
2022-12-24T04:36:21.360Z,1000.40
2022-12-24T04:37:21.429Z,1000.45
2022-12-24T04:38:21.332Z,1000.44
2022-12-24T04:39:21.296Z,1000.48
2022-12-24T04:40:21.277Z,1000.52
2022-12-24T04:41:24.450Z,1000.53
2022-12-24T04:42:21.235Z,1000.50
2022-12-24T04:43:21.209Z,1000.46
2022-12-24T04:44:21.192Z,1000.53
2022-12-24T04:45:21.164Z,1000.49
2022-12-24T04:46:21.223Z,1000.51
2022-12-24T04:47:21.124Z,1000.49
2022-12-24T04:48:21.110Z,1000.52
2022-12-24T04:49:21.081Z,1000.50
2022-12-24T04:50:21.075Z,1000.55
2022-12-24T04:51:21.049Z,1000.57
2022-12-24T04:52:21.024Z,1000.61
2022-12-24T04:53:21.015Z,1000.58
2022-12-24T04:54:21.015Z,1000.62
2022-12-24T04:55:20.958Z,1000.59
2022-12-24T04:56:20.935Z,1000.63
2022-12-24T04:57:20.922Z,1000.71
2022-12-24T04:58:20.894Z,1000.71
2022-12-24T04:59:20.869Z,1000.76
2022-12-24T05:00:20.876Z,1000.73
2022-12-24T05:01:21.002Z,1000.76
2022-12-24T05:02:20.972Z,1000.76
2022-12-24T05:03:20.957Z,1000.75
2022-12-24T05:04:20.765Z,1000.76
2022-12-24T05:05:20.740Z,1000.72
2022-12-24T05:06:20.737Z,1000.71
2022-12-24T05:07:20.704Z,1000.72
2022-12-24T05:08:20.680Z,1000.72
2022-12-24T05:09:20.693Z,1000.80
2022-12-24T05:10:20.646Z,1000.81
2022-12-24T05:11:20.619Z,1000.82
2022-12-24T05:12:20.595Z,1000.77
2022-12-24T05:13:20.586Z,1000.80
2022-12-24T05:14:20.563Z,1000.81
2022-12-24T05:15:20.537Z,1000.78
2022-12-24T05:16:20.642Z,1000.78
2022-12-24T05:17:20.488Z,1000.77
2022-12-24T05:18:20.475Z,1000.81
2022-12-24T05:19:20.450Z,1000.85
2022-12-24T05:20:20.432Z,1000.81
2022-12-24T05:21:20.402Z,1000.79
2022-12-24T05:22:20.386Z,1000.74
2022-12-24T05:23:20.386Z,1000.74
2022-12-24T05:24:20.340Z,1000.77
2022-12-24T05:25:20.346Z,1000.72
2022-12-24T05:26:20.304Z,1000.83
2022-12-24T05:27:20.280Z,1000.82
2022-12-24T05:28:20.262Z,1000.89
2022-12-24T05:29:20.245Z,1000.90
2022-12-24T05:30:20.231Z,1000.89
2022-12-24T05:31:20.290Z,1000.97
2022-12-24T05:32:20.170Z,1000.95
2022-12-24T05:33:20.153Z,1000.98
2022-12-24T05:34:20.129Z,1001.03
2022-12-24T05:35:20.125Z,1001.01
2022-12-24T05:36:20.089Z,1001.01
2022-12-24T05:37:20.067Z,1001.02
2022-12-24T05:38:20.056Z,1001.03
2022-12-24T05:39:20.035Z,1001.01
2022-12-24T05:40:20.007Z,1001.06
2022-12-24T05:41:20.005Z,1001.07
2022-12-24T05:42:19.956Z,1001.13
2022-12-24T05:43:19.943Z,1001.08
2022-12-24T05:44:19.917Z,1001.07
2022-12-24T05:45:19.914Z,1001.01
2022-12-24T05:46:20.026Z,1000.96
2022-12-24T05:47:19.854Z,1001.01
2022-12-24T05:48:19.838Z,1001.08
2022-12-24T05:49:19.819Z,1001.04
2022-12-24T05:50:19.786Z,1001.04
2022-12-24T05:51:19.907Z,1001.13
2022-12-24T05:52:19.752Z,1001.16
2022-12-24T05:53:19.735Z,1001.16
2022-12-24T05:54:19.707Z,1001.16
2022-12-24T05:55:19.696Z,1001.23
2022-12-24T05:56:19.663Z,1001.10
2022-12-24T05:57:19.671Z,1001.13
2022-12-24T05:58:19.620Z,1001.16
2022-12-24T05:59:19.604Z,1001.18
2022-12-24T06:00:19.591Z,1001.14
2022-12-24T06:01:19.695Z,1001.19
2022-12-24T06:02:19.584Z,1001.16
2022-12-24T06:03:19.531Z,1001.18
2022-12-24T06:04:24.716Z,1001.14
2022-12-24T06:05:19.475Z,1001.16
2022-12-24T06:06:19.465Z,1001.19
2022-12-24T06:07:19.426Z,1001.17
2022-12-24T06:08:19.417Z,1001.13
2022-12-24T06:09:19.396Z,1001.18
2022-12-24T06:10:19.374Z,1001.16
2022-12-24T06:11:19.356Z,1001.14
2022-12-24T06:12:19.326Z,1001.15
2022-12-24T06:13:19.326Z,1001.18
2022-12-24T06:14:19.282Z,1001.19
2022-12-24T06:15:23.846Z,1001.18
2022-12-24T06:16:19.346Z,1001.18
2022-12-24T06:17:19.221Z,1001.19
2022-12-24T06:18:19.192Z,1001.18
2022-12-24T06:19:19.181Z,1001.20
2022-12-24T06:20:19.153Z,1001.27
2022-12-24T06:21:19.146Z,1001.27
2022-12-24T06:22:19.111Z,1001.28
2022-12-24T06:23:19.112Z,1001.25
2022-12-24T06:24:19.097Z,1001.20
2022-12-24T06:25:19.440Z,1001.18
2022-12-24T06:26:19.024Z,1001.24
2022-12-24T06:27:19.009Z,1001.27
2022-12-24T06:28:18.993Z,1001.22
2022-12-24T06:29:18.985Z,1001.26
2022-12-24T06:30:19.047Z,1001.27
2022-12-24T06:31:19.012Z,1001.25
2022-12-24T06:32:18.907Z,1001.25
2022-12-24T06:33:18.883Z,1001.26
2022-12-24T06:34:18.859Z,1001.27
2022-12-24T06:35:18.838Z,1001.27
2022-12-24T06:36:18.818Z,1001.24
2022-12-24T06:37:18.798Z,1001.29
2022-12-24T06:38:18.774Z,1001.31
2022-12-24T06:39:18.755Z,1001.28
2022-12-24T06:40:18.729Z,1001.29
2022-12-24T06:41:18.714Z,1001.33
2022-12-24T06:42:18.688Z,1001.31
2022-12-24T06:43:18.664Z,1001.32
2022-12-24T06:44:18.645Z,1001.32
2022-12-24T06:45:18.645Z,1001.36
2022-12-24T06:46:18.763Z,1001.38
2022-12-24T06:47:18.583Z,1001.37
2022-12-24T06:48:18.588Z,1001.41
2022-12-24T06:49:18.538Z,1001.39
2022-12-24T06:50:18.515Z,1001.44
2022-12-24T06:51:18.496Z,1001.49
2022-12-24T06:52:18.470Z,1001.50
2022-12-24T06:53:18.450Z,1001.49
2022-12-24T06:54:18.442Z,1001.50
2022-12-24T06:55:18.410Z,1001.50
2022-12-24T06:56:18.390Z,1001.57
2022-12-24T06:57:18.382Z,1001.62
2022-12-24T06:58:18.347Z,1001.61
2022-12-24T06:59:18.325Z,1001.60
2022-12-24T07:00:18.303Z,1001.61
2022-12-24T07:01:18.461Z,1001.60
2022-12-24T07:02:18.440Z,1001.61
2022-12-24T07:03:18.274Z,1001.60
2022-12-24T07:04:20.719Z,1001.65
2022-12-24T07:05:18.200Z,1001.68
2022-12-24T07:06:18.180Z,1001.71
2022-12-24T07:07:18.152Z,1001.69
2022-12-24T07:08:18.131Z,1001.66
2022-12-24T07:09:18.113Z,1001.71
2022-12-24T07:10:18.093Z,1001.73
2022-12-24T07:11:18.080Z,1001.69
2022-12-24T07:12:18.087Z,1001.68
2022-12-24T07:13:18.027Z,1001.73
2022-12-24T07:14:18.043Z,1001.77
2022-12-24T07:15:18.052Z,1001.74
2022-12-24T07:16:18.189Z,1001.77
2022-12-24T07:17:18.211Z,1001.77
2022-12-24T07:18:17.924Z,1001.82
2022-12-24T07:19:17.906Z,1001.87
2022-12-24T07:20:17.884Z,1001.88
2022-12-24T07:21:17.867Z,1001.84
2022-12-24T07:22:17.834Z,1001.88
2022-12-24T07:23:17.816Z,1001.93
2022-12-24T07:24:17.806Z,1001.89
2022-12-24T07:25:17.775Z,1001.84
2022-12-24T07:26:17.749Z,1001.90
2022-12-24T07:27:17.727Z,1001.93
2022-12-24T07:28:22.328Z,1001.97
2022-12-24T07:29:17.689Z,1001.98
2022-12-24T07:30:17.668Z,1001.98
2022-12-24T07:31:17.783Z,1001.94
2022-12-24T07:32:17.621Z,1001.94
2022-12-24T07:33:17.632Z,1001.96
2022-12-24T07:34:17.581Z,1002.01
2022-12-24T07:35:17.563Z,1002.06
2022-12-24T07:36:17.535Z,1002.10
2022-12-24T07:37:17.521Z,1002.11
2022-12-24T07:38:17.496Z,1002.05
2022-12-24T07:39:17.478Z,1002.12
2022-12-24T07:40:17.453Z,1002.05
2022-12-24T07:41:17.435Z,1001.97
2022-12-24T07:42:17.411Z,1001.95
2022-12-24T07:43:17.389Z,1001.87
2022-12-24T07:44:17.386Z,1001.84
2022-12-24T07:45:17.356Z,1001.90
2022-12-24T07:46:17.412Z,1001.94
2022-12-24T07:47:17.305Z,1001.92
2022-12-24T07:48:17.290Z,1002.00
2022-12-24T07:49:17.289Z,1001.99
2022-12-24T07:50:17.248Z,1001.90
2022-12-24T07:51:17.229Z,1002.04
2022-12-24T07:52:17.196Z,1002.08
2022-12-24T07:53:17.187Z,1002.05
2022-12-24T07:54:17.157Z,1002.06
2022-12-24T07:55:17.139Z,1002.06
2022-12-24T07:56:17.120Z,1002.06
2022-12-24T07:57:17.097Z,1002.09
2022-12-24T07:58:17.079Z,1002.14
2022-12-24T07:59:17.051Z,1002.08
2022-12-24T08:00:17.040Z,1002.11
2022-12-24T08:01:17.080Z,1002.10
2022-12-24T08:02:18.740Z,1002.13
2022-12-24T08:03:17.140Z,1002.15
2022-12-24T08:04:16.941Z,1002.17
2022-12-24T08:05:16.956Z,1002.21
2022-12-24T08:06:16.913Z,1002.25
2022-12-24T08:07:16.882Z,1002.20
2022-12-24T08:08:16.864Z,1002.23
2022-12-24T08:09:16.855Z,1002.25
2022-12-24T08:10:16.820Z,1002.24
2022-12-24T08:11:16.802Z,1002.30
2022-12-24T08:12:16.772Z,1002.27
2022-12-24T08:13:16.776Z,1002.35
2022-12-24T08:14:16.729Z,1002.32
2022-12-24T08:15:16.732Z,1002.40
2022-12-24T08:16:16.750Z,1002.38
2022-12-24T08:17:16.674Z,1002.42
2022-12-24T08:18:16.658Z,1002.40
2022-12-24T08:19:16.638Z,1002.48
2022-12-24T08:20:16.616Z,1002.49
2022-12-24T08:21:16.616Z,1002.54
2022-12-24T08:22:16.570Z,1002.59
2022-12-24T08:23:16.562Z,1002.57
2022-12-24T08:24:16.535Z,1002.58
2022-12-24T08:25:16.509Z,1002.54
2022-12-24T08:26:16.520Z,1002.53
2022-12-24T08:27:16.458Z,1002.60
2022-12-24T08:28:16.436Z,1002.60
2022-12-24T08:29:16.423Z,1002.60
2022-12-24T08:30:21.026Z,1002.64
2022-12-24T08:31:16.435Z,1002.64
2022-12-24T08:32:16.358Z,1002.67
2022-12-24T08:33:16.347Z,1002.65
2022-12-24T08:34:16.317Z,1002.71
2022-12-24T08:35:16.308Z,1002.69
2022-12-24T08:36:16.269Z,1002.70
2022-12-24T08:37:16.281Z,1002.78
2022-12-24T08:38:16.227Z,1002.73
2022-12-24T08:39:16.214Z,1002.76
2022-12-24T08:40:16.181Z,1002.80
2022-12-24T08:41:16.168Z,1002.84
2022-12-24T08:42:16.232Z,1002.85
2022-12-24T08:43:16.129Z,1002.87
2022-12-24T08:44:16.110Z,1002.87
2022-12-24T08:45:16.085Z,1002.88
2022-12-24T08:46:16.123Z,1002.90
2022-12-24T08:47:16.041Z,1002.90
2022-12-24T08:48:16.017Z,1002.95
2022-12-24T08:49:16.008Z,1002.85
2022-12-24T08:50:15.978Z,1002.92
2022-12-24T08:51:15.956Z,1002.91
2022-12-24T08:52:15.931Z,1002.91
2022-12-24T08:53:15.958Z,1002.92
2022-12-24T08:54:15.908Z,1002.89
2022-12-24T08:55:15.884Z,1002.90
2022-12-24T08:56:15.853Z,1002.96
2022-12-24T08:57:15.843Z,1002.91
2022-12-24T08:58:15.809Z,1003.02
2022-12-24T08:59:15.792Z,1003.05
2022-12-24T09:00:15.780Z,1003.11
2022-12-24T09:01:15.903Z,1003.12
2022-12-24T09:02:15.860Z,1003.17
2022-12-24T09:03:15.819Z,1003.16
2022-12-24T09:04:15.691Z,1003.19
2022-12-24T09:05:15.676Z,1003.23
2022-12-24T09:06:15.653Z,1003.19
2022-12-24T09:07:15.628Z,1003.23
2022-12-24T09:08:15.604Z,1003.24
2022-12-24T09:09:15.613Z,1003.24
2022-12-24T09:10:15.575Z,1003.33
2022-12-24T09:11:15.549Z,1003.34
2022-12-24T09:12:15.530Z,1003.33
2022-12-24T09:13:15.510Z,1003.30
2022-12-24T09:14:15.486Z,1003.26
2022-12-24T09:15:15.477Z,1003.42
2022-12-24T09:16:15.510Z,1003.38
2022-12-24T09:17:15.434Z,1003.39
2022-12-24T09:18:15.407Z,1003.30
2022-12-24T09:19:15.389Z,1003.31
2022-12-24T09:20:15.378Z,1003.36
2022-12-24T09:21:15.350Z,1003.34
2022-12-24T09:22:15.327Z,1003.35
2022-12-24T09:23:15.314Z,1003.39
2022-12-24T09:24:15.288Z,1003.47
2022-12-24T09:25:15.293Z,1003.53
2022-12-24T09:26:15.247Z,1003.53
2022-12-24T09:27:15.234Z,1003.57
2022-12-24T09:28:15.209Z,1003.59
2022-12-24T09:29:15.189Z,1003.61
2022-12-24T09:30:15.174Z,1003.63
2022-12-24T09:31:15.205Z,1003.65
2022-12-24T09:32:15.248Z,1003.71
2022-12-24T09:33:15.112Z,1003.75
2022-12-24T09:34:15.093Z,1003.84
2022-12-24T09:35:15.101Z,1003.87
2022-12-24T09:36:15.052Z,1003.82
2022-12-24T09:37:15.041Z,1003.83
2022-12-24T09:38:15.006Z,1003.83
2022-12-24T09:39:14.993Z,1004.10
2022-12-24T09:40:15.070Z,1003.92
2022-12-24T09:41:14.970Z,1003.91
2022-12-24T09:42:14.946Z,1004.00
2022-12-24T09:43:14.909Z,1004.29
2022-12-24T09:44:14.887Z,1004.50
2022-12-24T09:45:14.884Z,1004.03
2022-12-24T09:46:15.002Z,1004.50
2022-12-24T09:47:14.832Z,1004.14
2022-12-24T09:48:14.814Z,1004.05
2022-12-24T09:49:14.803Z,1004.13
2022-12-24T09:50:14.779Z,1004.03
2022-12-24T09:51:14.760Z,1004.07
2022-12-24T09:52:14.749Z,1004.07
2022-12-24T09:53:14.725Z,1004.06
2022-12-24T09:54:14.699Z,1004.10
2022-12-24T09:55:14.682Z,1004.10
2022-12-24T09:56:14.669Z,1004.03
2022-12-24T09:57:14.664Z,1004.11
2022-12-24T09:58:14.631Z,1004.16
2022-12-24T09:59:14.613Z,1004.23
2022-12-24T10:00:14.592Z,1004.42
2022-12-24T10:01:14.685Z,1004.23
2022-12-24T10:02:14.702Z,1004.20
2022-12-24T10:03:14.618Z,1004.12
2022-12-24T10:04:14.521Z,1004.10
2022-12-24T10:05:14.498Z,1004.26
2022-12-24T10:06:14.480Z,1004.10
2022-12-24T10:07:14.456Z,1004.12
2022-12-24T10:08:14.446Z,1004.20
2022-12-24T10:09:14.421Z,1004.14
2022-12-24T10:10:14.409Z,1004.27
2022-12-24T10:11:14.392Z,1004.53
2022-12-24T10:12:14.367Z,1004.45
2022-12-24T10:13:14.372Z,1004.37
2022-12-24T10:14:14.328Z,1004.53
2022-12-24T10:15:14.308Z,1004.25
2022-12-24T10:16:14.337Z,1004.36
2022-12-24T10:17:14.317Z,1004.36
2022-12-24T10:18:14.259Z,1004.28
2022-12-24T10:19:14.242Z,1004.30
2022-12-24T10:20:14.224Z,1004.33
2022-12-24T10:21:14.207Z,1004.29
2022-12-24T10:22:14.184Z,1004.31
2022-12-24T10:23:14.158Z,1004.24
2022-12-24T10:24:14.142Z,1004.33
2022-12-24T10:25:14.124Z,1004.27
2022-12-24T10:26:14.119Z,1004.32
2022-12-24T10:27:14.092Z,1004.27
2022-12-24T10:28:14.066Z,1004.33
2022-12-24T10:29:14.070Z,1004.26
2022-12-24T10:30:20.730Z,1004.28
2022-12-24T10:31:14.110Z,1004.32
2022-12-24T10:32:13.990Z,1004.33
2022-12-24T10:33:13.969Z,1004.29
2022-12-24T10:34:13.955Z,1004.31
2022-12-24T10:35:13.944Z,1004.35
2022-12-24T10:36:13.915Z,1004.29
2022-12-24T10:37:13.889Z,1004.34
2022-12-24T10:38:13.877Z,1004.36
2022-12-24T10:39:13.853Z,1004.37
2022-12-24T10:40:13.833Z,1004.32
2022-12-24T10:41:13.819Z,1004.34
2022-12-24T10:42:13.805Z,1004.38
2022-12-24T10:43:13.772Z,1004.43
2022-12-24T10:44:13.748Z,1004.41
2022-12-24T10:45:13.757Z,1004.37
2022-12-24T10:46:13.752Z,1004.46
2022-12-24T10:47:13.689Z,1004.48
2022-12-24T10:48:13.672Z,1004.45
2022-12-24T10:49:13.649Z,1004.37
2022-12-24T10:50:13.638Z,1004.37
2022-12-24T10:51:13.611Z,1004.40
2022-12-24T10:52:13.598Z,1004.48
2022-12-24T10:53:13.582Z,1004.51
2022-12-24T10:54:13.561Z,1004.47
2022-12-24T10:55:13.537Z,1004.46
2022-12-24T10:56:13.535Z,1004.49
2022-12-24T10:57:13.496Z,1004.57
2022-12-24T10:58:13.484Z,1004.46
2022-12-24T10:59:13.454Z,1004.39
2022-12-24T11:00:13.436Z,1004.47
2022-12-24T11:01:13.564Z,1004.55
2022-12-24T11:02:13.556Z,1004.49
2022-12-24T11:03:13.500Z,1004.51
2022-12-24T11:04:13.400Z,1004.51
2022-12-24T11:05:13.334Z,1004.50
2022-12-24T11:06:13.329Z,1004.52
2022-12-24T11:07:13.301Z,1004.51
2022-12-24T11:08:13.272Z,1004.54
2022-12-24T11:09:13.279Z,1004.47
2022-12-24T11:10:13.241Z,1004.58
2022-12-24T11:11:13.220Z,1004.51
2022-12-24T11:12:13.197Z,1004.54
2022-12-24T11:13:36.723Z,1004.54
2022-12-24T11:14:13.160Z,1004.49
2022-12-24T11:15:13.151Z,1004.49
2022-12-24T11:16:13.207Z,1004.49
2022-12-24T11:17:13.117Z,1004.48
2022-12-24T11:18:13.085Z,1004.64
2022-12-24T11:19:13.059Z,1004.53
2022-12-24T11:20:13.043Z,1004.80
2022-12-24T11:21:13.022Z,1004.77
2022-12-24T11:22:13.009Z,1004.66
2022-12-24T11:23:12.980Z,1004.68
2022-12-24T11:24:12.967Z,1004.47
2022-12-24T11:25:12.948Z,1004.40
2022-12-24T11:26:12.930Z,1004.46
2022-12-24T11:27:12.906Z,1004.39
2022-12-24T11:28:12.905Z,1004.71
2022-12-24T11:29:12.871Z,1004.41
2022-12-24T11:30:12.879Z,1004.41
2022-12-24T11:31:12.874Z,1004.43
2022-12-24T11:32:12.819Z,1004.47
2022-12-24T11:33:12.818Z,1004.39
2022-12-24T11:34:12.792Z,1004.42
2022-12-24T11:35:12.759Z,1004.43
2022-12-24T11:36:12.749Z,1004.37
2022-12-24T11:37:15.154Z,1004.57
2022-12-24T11:38:12.704Z,1004.39
2022-12-24T11:39:12.683Z,1004.41
2022-12-24T11:40:12.672Z,1004.36
2022-12-24T11:41:12.682Z,1004.36
2022-12-24T11:42:12.634Z,1004.44
2022-12-24T11:43:14.818Z,1004.47
2022-12-24T11:44:12.597Z,1004.41
2022-12-24T11:45:12.574Z,1004.45
2022-12-24T11:46:12.615Z,1004.47
2022-12-24T11:47:12.535Z,1004.45
2022-12-24T11:48:12.526Z,1004.52
2022-12-24T11:49:12.555Z,1004.49
2022-12-24T11:50:18.691Z,1004.44
2022-12-24T11:51:12.461Z,1004.48
2022-12-24T11:52:12.488Z,1004.50
2022-12-24T11:53:12.424Z,1004.49
2022-12-24T11:54:12.407Z,1004.47
2022-12-24T11:55:16.324Z,1004.43
2022-12-24T11:56:12.361Z,1004.45
2022-12-24T11:57:12.343Z,1004.45
2022-12-24T11:58:12.330Z,1004.44
2022-12-24T11:59:12.304Z,1004.44
2022-12-24T12:00:12.285Z,1004.43
2022-12-24T12:01:15.868Z,1004.50
2022-12-24T12:02:12.354Z,1004.41
2022-12-24T12:03:12.275Z,1004.42
2022-12-24T12:04:12.294Z,1004.39
2022-12-24T12:05:12.224Z,1004.42
2022-12-24T12:06:12.177Z,1004.38
2022-12-24T12:07:15.116Z,1004.39
2022-12-24T12:08:12.128Z,1004.41
2022-12-24T12:09:12.104Z,1004.47
2022-12-24T12:10:12.126Z,1004.41
2022-12-24T12:11:12.067Z,1004.41
2022-12-24T12:12:12.048Z,1004.47